Latest Weather Observations for Edinburgh

IDS60801

Issued at 11:02 pm CDT Sunday 1 March 2015 (issued every 30 minutes, with the page automatically refreshed every 10 minutes)

About weather observations | Map of weather stations | Latest weather observations for SA | Other Formats
Station Details ID: 023083 Name: EDINBURGH RAAF Lat: -34.71 Lon: 138.62 Height: 16.54 m
Data from the previous 72 hours. | See also: Recent months at Edinburgh
Date/Time
CDT
Temp
°C
App
Temp
°C
Dew
Point
Rel
Hum
%
Delta-T
°C
Wind Press
QNH
hPa
Press
MSL
hPa
Rain
since 9 am
mm
Dir
 
Spd
km/h
Gust
km/h
Spd
kts
Gust
kts
01/11:00pm 17.0 14.6 9.9 63 3.7 SSE 13 19 7 10 1016.7 1016.6 0.0
01/10:30pm 17.3 14.9 10.0 62 3.9 SSE 13 19 7 10 1017.1 1017.0 0.0
01/10:00pm 17.7 15.2 9.8 60 4.2 SSE 13 20 7 11 1017.2 1017.1 0.0
01/09:30pm 18.5 16.0 9.8 57 4.6 SE 13 26 7 14 1017.1 1017.0 0.0
01/09:00pm 19.1 15.8 9.6 54 5.0 SSE 17 20 9 11 1016.9 1016.8 0.0
01/08:30pm 20.3 17.2 8.9 48 6.0 SE 15 20 8 11 1016.1 1016.0 0.0
01/08:00pm 20.9 17.3 8.5 45 6.5 SSE 17 24 9 13 1015.6 1015.5 0.0
01/07:30pm 21.9 18.0 7.3 39 7.5 SE 17 24 9 13 1015.2 1015.1 0.0
01/07:00pm 22.9 18.4 6.2 34 8.5 SE 19 28 10 15 1015.1 1015.0 0.0
01/06:30pm 24.0 19.7 5.4 30 9.4 ESE 17 24 9 13 1015.1 1015.0 0.0
01/06:00pm 24.3 20.0 5.1 29 9.7 SE 17 28 9 15 1014.8 1014.7 0.0
01/05:30pm 24.9 20.4 6.1 30 9.7 SE 19 26 10 14 1014.6 1014.5 0.0
01/05:00pm 25.0 20.4 5.7 29 9.9 SSE 19 33 10 18 1014.6 1014.5 0.0
01/04:30pm 25.4 21.8 6.6 30 9.8 SSE 15 28 8 15 1015.0 1014.9 0.0
01/04:00pm 26.1 21.7 7.2 30 10.0 SSE 20 30 11 16 1014.6 1014.5 0.0
01/03:30pm 25.7 21.9 5.8 28 10.2 SE 15 24 8 13 1014.7 1014.6 0.0
01/03:00pm 25.5 21.7 5.7 28 10.1 E 15 22 8 12 1015.2 1015.1 0.0
01/02:30pm 25.3 21.2 6.0 29 9.9 SSE 17 24 9 13 1015.5 1015.4 0.0
01/02:00pm 25.3 22.0 6.5 30 9.8 SE 13 26 7 14 1015.5 1015.4 0.0
01/01:30pm 24.4 20.7 6.2 31 9.3 SSE 15 26 8 14 1015.8 1015.7 0.0
01/01:00pm 23.4 19.4 6.7 34 8.6 S 17 24 9 13 1016.3 1016.2 0.0
01/12:30pm 23.0 20.0 7.5 37 8.1 SW 13 22 7 12 1016.8 1016.7 0.0
01/12:00pm 22.2 18.7 7.2 38 7.7 S 15 24 8 13 1017.1 1017.0 0.0
01/11:30am 22.2 18.3 7.2 38 7.7 ESE 17 26 9 14 1017.2 1017.1 0.0
01/11:00am 21.2 17.3 7.1 40 7.2 SSE 17 28 9 15 1017.2 1017.1 0.0
01/10:30am 20.0 17.0 7.7 45 6.3 SSE 13 17 7 9 1017.0 1016.9 0.0
01/10:00am 19.6 16.0 8.3 48 5.9 S 17 24 9 13 1017.0 1016.9 0.0
01/09:30am 19.3 14.3 8.0 48 5.8 SSW 24 33 13 18 1016.6 1016.5 0.0
01/09:00am 18.6 15.1 7.1 47 5.8 SSE 15 24 8 13 1016.3 1016.2 0.0
01/08:30am 17.5 14.5 7.8 53 4.9 S 13 20 7 11 1016.0 1015.9 0.0
01/08:00am 16.4 13.8 7.6 56 4.4 SSE 11 15 6 8 1015.8 1015.7 0.0
01/07:30am 15.8 14.0 7.3 57 4.2 SSE 6 9 3 5 1015.3 1015.2 0.0
01/07:00am 15.7 13.3 7.2 57 4.2 S 9 11 5 6 1014.7 1014.6 0.0
01/06:30am 16.2 13.8 6.9 54 4.6 SSE 9 15 5 8 1014.2 1014.1 0.0
01/06:00am 16.4 13.4 6.2 51 5.0 SSE 11 17 6 9 1013.9 1013.8 0.0
01/05:30am 16.6 13.3 6.4 51 5.0 S 13 17 7 9 1013.7 1013.6 0.0
01/05:00am 17.3 12.5 7.4 52 5.0 S 22 33 12 18 1013.3 1013.2 0.0
01/04:30am 17.5 13.6 9.4 59 4.2 S 20 28 11 15 1012.8 1012.7 0.0
01/04:00am 17.7 12.7 9.6 59 4.3 S 26 35 14 19 1012.5 1012.4 0.0
01/03:30am 17.8 14.2 9.9 60 4.2 S 19 28 10 15 1012.2 1012.1 0.0
01/03:00am 18.1 14.7 11.2 64 3.7 SSW 20 26 11 14 1012.1 1012.0 0.0
01/02:30am 17.9 14.4 11.0 64 3.7 S 20 26 11 14 1012.0 1011.9 0.0
01/02:00am 18.1 14.4 11.4 65 3.7 S 22 32 12 17 1012.1 1012.0 0.0
01/01:30am 18.2 15.3 12.2 68 3.3 S 19 28 10 15 1012.1 1012.0 0.0
01/01:00am 18.4 15.0 12.4 68 3.3 SSW 22 30 12 16 1012.1 1012.0 0.0
01/12:30am 18.2 15.5 11.7 66 3.6 S 17 22 9 12 1012.1 1012.0 0.0
01/12:00am 18.2 14.9 11.7 66 3.6 SSW 20 28 11 15 1012.1 1012.0 0.0
 
Date/Time
CDT
Temp
°C
App
Temp
°C
Dew
Point
Rel
Hum
%
Delta-T
°C
Wind Press
QNH
hPa
Press
MSL
hPa
Rain
since 9 am
mm
Dir
 
Spd
km/h
Gust
km/h
Spd
kts
Gust
kts
28/11:30pm 18.3 15.0 11.6 65 3.7 S 20 30 11 16 1012.0 1011.9 0.0
28/11:00pm 18.6 14.5 11.4 63 3.9 S 24 39 13 21 1012.0 1011.9 0.0
28/10:30pm 19.0 14.2 11.8 63 4.0 SSW 28 37 15 20 1011.7 1011.6 0.0
28/10:00pm 19.6 14.7 12.4 63 4.0 SSW 30 41 16 22 1011.3 1011.2 0.0
28/09:30pm 19.9 14.6 13.1 65 3.9 SSW 33 39 18 21 1010.6 1010.5 0.0
28/09:00pm 20.4 16.3 15.0 71 3.2 SW 30 39 16 21 1009.8 1009.7 0.0
28/08:30pm 20.7 16.2 15.5 72 3.1 SW 33 43 18 23 1009.1 1009.0 0.0
28/08:00pm 21.2 16.4 15.5 70 3.4 SSW 35 43 19 23 1008.1 1008.1 0.0
28/07:30pm 21.7 16.3 16.0 70 3.4 SW 39 50 21 27 1007.6 1007.6 0.0
28/07:00pm 22.5 17.3 15.6 65 4.1 SW 37 48 20 26 1006.8 1006.8 0.0
28/06:30pm 25.3 21.8 15.6 55 5.9 SSW 28 35 15 19 1006.4 1006.4 0.0
28/06:00pm 24.6 19.4 15.5 57 5.5 SSW 37 50 20 27 1005.9 1005.9 0.0
28/05:30pm 25.7 20.4 16.3 56 5.8 SW 39 48 21 26 1005.6 1005.6 0.0
28/05:00pm 27.1 21.6 14.8 47 7.4 SW 37 44 20 24 1005.3 1005.3 0.0
28/04:30pm 27.8 22.3 13.7 42 8.4 SSW 35 43 19 23 1004.4 1004.4 0.0
28/04:00pm 28.0 24.7 16.9 51 6.9 SSW 30 39 16 21 1004.2 1004.2 0.0
28/03:30pm 27.4 22.5 15.4 48 7.3 SSW 35 43 19 23 1004.3 1004.3 0.0
28/03:00pm 29.2 23.9 13.0 37 9.6 SW 33 41 18 22 1004.4 1004.4 0.0
28/02:30pm 30.7 26.2 14.8 38 9.8 SW 32 43 17 23 1003.9 1003.9 0.0
28/02:00pm 31.6 26.6 13.4 33 10.9 SW 32 50 17 27 1003.6 1003.6 0.0
28/01:59pm 32.4 27.5 13.6 32 11.4 SW 32 50 17 27 1003.6 1003.6 0.0
28/01:30pm 31.8 26.6 11.6 29 11.9 SW 30 41 16 22 1003.7 1003.7 0.0
28/01:00pm 32.8 27.1 11.3 27 12.6 WSW 32 46 17 25 1003.7 1003.7 0.0
28/12:30pm 33.9 26.7 10.5 24 13.6 W 39 44 21 24 1003.8 1003.8 0.0
28/12:24pm 34.9 27.7 10.7 23 14.1 W 39 50 21 27 1003.7 1003.7 0.0
28/12:00pm 36.1 28.8 7.2 17 16.2 WNW 35 54 19 29 1003.7 1003.7 0.0
28/11:45am 35.9 29.1 7.0 17 16.0 WNW 32 50 17 27 1003.8 1003.8 0.0
28/11:30am 34.0 29.8 11.2 25 13.4 W 24 33 13 18 1004.1 1004.1 0.0
28/11:00am 35.3 30.1 8.9 20 15.0 NW 26 33 14 18 1003.8 1003.8 0.0
28/10:30am 33.2 29.6 10.5 25 13.2 NNW 20 30 11 16 1003.9 1003.9 0.0
28/10:00am 32.3 29.5 11.5 28 12.2 NNE 17 22 9 12 1004.1 1004.1 0.0
28/09:30am 30.0 26.6 12.4 34 10.4 NNE 22 28 12 15 1004.1 1004.1 0.0
28/09:00am 28.3 24.2 12.6 38 9.2 NE 26 33 14 18 1004.1 1004.1 0.0
28/08:30am 27.2 23.1 12.8 41 8.4 NE 26 32 14 17 1003.9 1003.9 0.0
28/08:00am 26.1 21.7 12.9 44 7.7 NE 28 37 15 20 1003.8 1003.8 0.0
28/07:30am 25.8 21.4 13.0 45 7.5 NE 28 35 15 19 1003.6 1003.6 0.0
28/07:00am 26.1 20.8 12.5 42 7.9 NE 32 39 17 21 1003.3 1003.3 0.0
28/06:30am 26.8 21.9 12.4 40 8.4 NE 30 41 16 22 1003.2 1003.2 0.0
28/06:00am 27.0 21.7 12.6 41 8.4 NE 32 41 17 22 1003.1 1003.1 0.0
28/05:30am 26.4 22.5 12.1 41 8.3 NE 24 30 13 16 1002.8 1002.8 0.0
28/05:00am 26.6 23.2 10.7 37 8.9 NE 19 24 10 13 1002.8 1002.8 0.0
28/04:30am 26.5 22.5 10.6 37 9.0 NE 22 30 12 16 1002.8 1002.8 0.0
28/04:00am 26.4 23.6 11.3 39 8.6 NE 17 22 9 12 1003.0 1003.0 0.0
28/03:30am 26.4 23.0 11.3 39 8.6 ENE 20 30 11 16 1003.3 1003.3 0.0
28/03:00am 26.2 21.5 11.9 41 8.2 E 28 41 15 22 1003.5 1003.5 0.0
28/02:30am 26.3 22.9 11.2 38 8.6 E 20 30 11 16 1004.2 1004.2 0.0
28/02:00am 26.3 22.2 11.6 40 8.4 E 24 37 13 20 1004.5 1004.5 0.0
28/01:30am 26.2 21.9 11.9 41 8.2 E 26 44 14 24 1004.8 1004.8 0.0
28/01:00am 26.2 22.7 12.3 42 8.0 E 22 30 12 16 1006.1 1006.1 0.0
28/12:30am 26.1 22.5 11.8 41 8.2 E 22 33 12 18 1006.4 1006.4 0.0
28/12:00am 25.9 21.4 11.3 40 8.3 E 26 37 14 20 1006.5 1006.5 0.0
 
Date/Time
CDT
Temp
°C
App
Temp
°C
Dew
Point
Rel
Hum
%
Delta-T
°C
Wind Press
QNH
hPa
Press
MSL
hPa
Rain
since 9 am
mm
Dir
 
Spd
km/h
Gust
km/h
Spd
kts
Gust
kts
27/11:30pm 26.1 22.3 11.1 39 8.5 E 22 33 12 18 1007.4 1007.4 0.0
27/11:00pm 26.6 23.7 11.1 38 8.8 E 17 24 9 13 1008.4 1008.4 0.0
27/10:30pm 27.0 23.9 10.2 35 9.4 ESE 17 28 9 15 1008.5 1008.5 0.0
27/10:00pm 27.6 24.9 10.3 34 9.7 SE 15 20 8 11 1008.4 1008.4 0.0
27/09:30pm 28.6 26.4 10.8 33 10.2 ESE 13 19 7 10 1007.8 1007.8 0.0
27/09:00pm 29.7 26.5 11.2 31 10.7 ESE 19 28 10 15 1006.8 1006.8 0.0
27/08:30pm 29.2 25.4 11.3 33 10.3 SSW 22 30 12 16 1006.8 1006.8 0.0
27/08:00pm 30.4 26.8 11.9 32 10.8 SW 22 35 12 19 1005.9 1005.9 0.0
27/07:30pm 32.3 29.4 9.8 25 12.9 SSW 15 19 8 10 1005.5 1005.5 0.0
27/07:00pm 32.8 29.3 8.9 23 13.5 S 17 22 9 12 1005.2 1005.2 0.0
27/06:30pm 33.5 30.4 8.9 22 13.9 S 15 20 8 11 1005.1 1005.1 0.0
27/06:00pm 33.8 31.0 8.4 21 14.3 S 13 17 7 9 1005.1 1005.1 0.0
27/05:30pm 34.2 31.1 8.8 21 14.4 SSW 15 22 8 12 1005.4 1005.4 0.0
27/05:00pm 34.9 32.3 9.3 21 14.6 SW 13 20 7 11 1005.4 1005.4 0.0
27/04:30pm 34.3 31.6 8.8 21 14.5 SW 13 20 7 11 1005.6 1005.6 0.0
27/04:00pm 34.9 32.3 9.3 21 14.6 SW 13 19 7 10 1005.8 1005.8 0.0
27/03:30pm 34.1 30.2 8.7 21 14.4 SW 19 24 10 13 1006.1 1006.1 0.0
27/03:00pm 34.0 30.2 9.9 23 13.9 WSW 20 28 11 15 1006.5 1006.5 0.0
27/02:30pm 34.4 31.3 10.3 23 14.0 SW 17 22 9 12 1006.7 1006.7 0.0
27/02:00pm 34.3 30.4 9.5 22 14.2 WSW 20 28 11 15 1007.0 1007.0 0.0
27/01:30pm 34.9 33.1 10.7 23 14.2 WSW 11 22 6 12 1007.2 1007.2 0.0
27/01:00pm 34.1 31.9 9.4 22 14.1 WNW 11 24 6 13 1007.6 1007.6 0.0
27/12:30pm 33.0 31.0 8.5 22 13.7 NNE 9 17 5 9 1008.3 1008.3 0.0
27/12:00pm 32.2 29.5 9.1 24 13.0 NNE 13 22 7 12 1008.9 1008.8 0.0
27/11:30am 31.2 28.2 9.4 26 12.3 NE 15 22 8 12 1009.3 1009.2 0.0
27/11:00am 29.5 26.8 9.1 28 11.3 NNE 13 17 7 9 1009.9 1009.8 0.0
27/10:30am 28.8 25.4 9.0 29 11.0 NE 17 24 9 13 1010.0 1009.9 0.0
27/10:00am 27.8 23.7 8.6 30 10.5 NE 20 26 11 14 1009.9 1009.8 0.0
27/09:30am 26.1 22.4 8.1 32 9.7 NE 17 20 9 11 1010.0 1009.9 0.0
27/09:00am 23.2 20.1 7.3 36 8.3 NE 13 15 7 8 1010.3 1010.2 0.0
27/08:30am 21.8 19.0 6.9 38 7.6 NE 11 15 6 8 1010.7 1010.6 0.0
27/08:00am 20.9 17.0 7.2 41 7.0 NNE 17 20 9 11 1010.4 1010.3 0.0
27/07:30am 20.1 17.3 7.1 43 6.6 NNE 11 13 6 7 1009.9 1009.8 0.0
27/07:00am 18.9 16.5 7.0 46 6.0 NNE 9 13 5 7 1009.5 1009.4 0.0
27/06:30am 18.1 16.3 8.1 52 5.1 N 7 7 4 4 1009.5 1009.4 0.0
27/06:00am 18.9 18.4 8.0 49 5.6 CALM 0 0 0 0 1009.3 1009.2 0.0
27/05:30am 18.9 17.8 8.3 50 5.5 N 4 7 2 4 1009.1 1009.0 0.0
27/05:00am 19.8 17.4 7.2 44 6.4 NE 9 11 5 6 1008.8 1008.7 0.0
27/04:30am 20.5 18.1 8.5 46 6.3 ENE 11 13 6 7 1008.7 1008.6 0.0
27/04:00am 19.7 17.9 9.3 51 5.5 ENE 9 13 5 7 1008.9 1008.8 0.0
27/03:30am 18.6 17.0 8.6 52 5.2 NE 7 9 4 5 1009.4 1009.3 0.0
27/03:00am 18.6 18.4 9.1 54 5.0 CALM 0 0 0 0 1009.8 1009.7 0.0
27/02:30am 18.9 17.6 7.7 48 5.7 WSW 4 7 2 4 1010.1 1010.0 0.0
27/02:00am 19.7 17.9 8.1 47 6.0 NNE 7 9 4 5 1010.1 1010.0 0.0
27/01:30am 20.2 18.0 7.9 45 6.4 NE 9 11 5 6 1010.2 1010.1 0.0
27/01:00am 20.3 18.1 7.7 44 6.5 NE 9 13 5 7 1010.3 1010.2 0.0
27/12:30am 21.1 20.7 8.4 44 6.7 CALM 0 6 0 3 1010.7 1010.6 0.0
27/12:00am 21.6 20.4 8.1 42 7.1 SSE 4 6 2 3 1011.1 1011.0 0.0
 
Date/Time
CDT
Temp
°C
App
Temp
°C
Dew
Point
Rel
Hum
%
Delta-T
°C
Wind Press
QNH
hPa
Press
MSL
hPa
Rain
since 9 am
mm
Dir
 
Spd
km/h
Gust
km/h
Spd
kts
Gust
kts
26/11:30pm 21.3 19.6 7.5 41 7.1 NW 6 7 3 4 1011.3 1011.2 0.0

Other Formats:

Comma delimited format used in spreadsheet applications
http://www.bom.gov.au/fwo/IDS60801/IDS60801.95676.axf

JavaScript Object Notation format (JSON) in row-major order
http://www.bom.gov.au/fwo/IDS60801/IDS60801.95676.json